Andrews AFB, Maryland
Current Conditions -  °F | °C
As of 11:58 PM on Friday 31 Oct 2014 (Local Time) from KADW Reporting Station
Scattered Clouds Scattered Clouds  
Wind Chill: 38°   Ceiling: Unl
Heat Index: 42°   Visibility: 8mi
Dew Point: 37°   Wind: 6mph
Humidity: 83%   Direction: 330°NNW
Pressure: 29.83"   Gusts: NA
Location:  38.8°N, 76.87°W
Report Text: KADW 010358Z AUTO 33005KT 8SM SCT150 05/03 A2983 RMK AO2 SLP109 T00530026 $
Loading
Personal Weather Stations






























Interactive Weather Map
Tropical Storm Tracking
New forecast layout! Learn more

10-Day Weather Forecast

Advertisements
Track Severe Weather on mobile